sensor_id;sensor_type;location;lat;lon;timestamp;P1;durP1;ratioP1;P2;durP2;ratioP2
65206;SDS011;58477;48.072;11.970;2024-02-23T00:01:06;2.33;;;0.90;;
65206;SDS011;58477;48.072;11.970;2024-02-23T00:03:33;0.70;;;0.70;;
65206;SDS011;58477;48.072;11.970;2024-02-23T00:06:00;0.40;;;0.40;;
65206;SDS011;58477;48.072;11.970;2024-02-23T00:08:26;0.35;;;0.35;;
65206;SDS011;58477;48.072;11.970;2024-02-23T00:10:51;0.40;;;0.40;;
65206;SDS011;58477;48.072;11.970;2024-02-23T00:13:17;6.03;;;0.20;;
65206;SDS011;58477;48.072;11.970;2024-02-23T00:15:42;0.10;;;0.10;;
65206;SDS011;58477;48.072;11.970;2024-02-23T00:18:09;0.20;;;0.20;;
65206;SDS011;58477;48.072;11.970;2024-02-23T00:20:34;0.75;;;0.20;;
65206;SDS011;58477;48.072;11.970;2024-02-23T00:22:59;0.10;;;0.10;;
65206;SDS011;58477;48.072;11.970;2024-02-23T00:25:25;0.30;;;0.30;;
65206;SDS011;58477;48.072;11.970;2024-02-23T00:27:50;0.20;;;0.20;;
65206;SDS011;58477;48.072;11.970;2024-02-23T00:30:16;0.20;;;0.20;;
65206;SDS011;58477;48.072;11.970;2024-02-23T00:32:41;0.10;;;0.10;;
65206;SDS011;58477;48.072;11.970;2024-02-23T00:35:06;0.30;;;0.30;;
65206;SDS011;58477;48.072;11.970;2024-02-23T00:37:32;0.20;;;0.20;;
65206;SDS011;58477;48.072;11.970;2024-02-23T00:40:03;0.13;;;0.13;;
65206;SDS011;58477;48.072;11.970;2024-02-23T00:42:30;0.30;;;0.30;;
65206;SDS011;58477;48.072;11.970;2024-02-23T00:44:56;0.25;;;0.20;;
65206;SDS011;58477;48.072;11.970;2024-02-23T00:47:21;0.22;;;0.22;;
65206;SDS011;58477;48.072;11.970;2024-02-23T00:49:47;0.20;;;0.20;;
65206;SDS011;58477;48.072;11.970;2024-02-23T00:52:12;0.10;;;0.10;;
65206;SDS011;58477;48.072;11.970;2024-02-23T00:54:37;0.10;;;0.10;;
65206;SDS011;58477;48.072;11.970;2024-02-23T00:57:03;1.00;;;0.30;;
65206;SDS011;58477;48.072;11.970;2024-02-23T00:59:28;0.20;;;0.20;;
65206;SDS011;58477;48.072;11.970;2024-02-23T01:01:54;0.20;;;0.20;;
65206;SDS011;58477;48.072;11.970;2024-02-23T01:04:20;0.20;;;0.20;;
65206;SDS011;58477;48.072;11.970;2024-02-23T01:06:46;0.20;;;0.20;;
65206;SDS011;58477;48.072;11.970;2024-02-23T01:09:11;0.13;;;0.13;;
65206;SDS011;58477;48.072;11.970;2024-02-23T01:11:36;0.20;;;0.20;;
65206;SDS011;58477;48.072;11.970;2024-02-23T01:14:02;0.15;;;0.15;;
65206;SDS011;58477;48.072;11.970;2024-02-23T01:16:27;0.20;;;0.20;;
65206;SDS011;58477;48.072;11.970;2024-02-23T01:18:53;0.20;;;0.20;;
65206;SDS011;58477;48.072;11.970;2024-02-23T01:21:18;0.43;;;0.20;;
65206;SDS011;58477;48.072;11.970;2024-02-23T01:23:44;0.20;;;0.20;;
65206;SDS011;58477;48.072;11.970;2024-02-23T01:26:09;0.20;;;0.20;;
65206;SDS011;58477;48.072;11.970;2024-02-23T01:28:35;0.20;;;0.20;;
65206;SDS011;58477;48.072;11.970;2024-02-23T01:31:00;0.20;;;0.20;;
65206;SDS011;58477;48.072;11.970;2024-02-23T01:33:26;0.13;;;0.13;;
65206;SDS011;58477;48.072;11.970;2024-02-23T01:35:51;0.20;;;0.20;;
65206;SDS011;58477;48.072;11.970;2024-02-23T01:38:17;0.20;;;0.20;;
65206;SDS011;58477;48.072;11.970;2024-02-23T01:40:46;0.22;;;0.22;;
65206;SDS011;58477;48.072;11.970;2024-02-23T01:43:12;0.20;;;0.20;;
65206;SDS011;58477;48.072;11.970;2024-02-23T01:45:38;0.22;;;0.20;;
65206;SDS011;58477;48.072;11.970;2024-02-23T01:48:03;0.20;;;0.20;;
65206;SDS011;58477;48.072;11.970;2024-02-23T01:50:29;0.20;;;0.20;;
65206;SDS011;58477;48.072;11.970;2024-02-23T01:52:57;0.10;;;0.10;;
65206;SDS011;58477;48.072;11.970;2024-02-23T01:55:26;0.30;;;0.30;;
65206;SDS011;58477;48.072;11.970;2024-02-23T01:57:52;0.20;;;0.20;;
65206;SDS011;58477;48.072;11.970;2024-02-23T02:00:18;0.30;;;0.15;;
65206;SDS011;58477;48.072;11.970;2024-02-23T02:02:50;0.20;;;0.20;;
65206;SDS011;58477;48.072;11.970;2024-02-23T02:05:17;0.30;;;0.30;;
65206;SDS011;58477;48.072;11.970;2024-02-23T02:07:43;0.20;;;0.20;;
65206;SDS011;58477;48.072;11.970;2024-02-23T02:10:10;0.20;;;0.20;;
65206;SDS011;58477;48.072;11.970;2024-02-23T02:12:36;0.20;;;0.20;;
65206;SDS011;58477;48.072;11.970;2024-02-23T02:15:02;0.13;;;0.13;;
65206;SDS011;58477;48.072;11.970;2024-02-23T02:17:28;0.10;;;0.10;;
65206;SDS011;58477;48.072;11.970;2024-02-23T02:19:54;0.20;;;0.20;;
65206;SDS011;58477;48.072;11.970;2024-02-23T02:22:19;0.20;;;0.20;;
65206;SDS011;58477;48.072;11.970;2024-02-23T02:24:45;0.13;;;0.13;;
65206;SDS011;58477;48.072;11.970;2024-02-23T02:27:11;0.20;;;0.20;;
65206;SDS011;58477;48.072;11.970;2024-02-23T02:29:37;0.75;;;0.30;;
65206;SDS011;58477;48.072;11.970;2024-02-23T02:32:03;0.20;;;0.20;;
65206;SDS011;58477;48.072;11.970;2024-02-23T02:34:28;0.20;;;0.20;;
65206;SDS011;58477;48.072;11.970;2024-02-23T02:36:54;0.10;;;0.10;;
65206;SDS011;58477;48.072;11.970;2024-02-23T02:39:20;0.17;;;0.17;;
65206;SDS011;58477;48.072;11.970;2024-02-23T02:41:45;1.30;;;0.30;;
65206;SDS011;58477;48.072;11.970;2024-02-23T02:44:13;0.20;;;0.20;;
65206;SDS011;58477;48.072;11.970;2024-02-23T02:46:39;0.10;;;0.10;;
65206;SDS011;58477;48.072;11.970;2024-02-23T02:49:04;0.20;;;0.20;;
65206;SDS011;58477;48.072;11.970;2024-02-23T02:51:30;0.20;;;0.20;;
65206;SDS011;58477;48.072;11.970;2024-02-23T02:53:55;0.20;;;0.20;;
65206;SDS011;58477;48.072;11.970;2024-02-23T02:56:20;0.20;;;0.20;;
65206;SDS011;58477;48.072;11.970;2024-02-23T02:58:46;0.20;;;0.20;;
65206;SDS011;58477;48.072;11.970;2024-02-23T03:01:11;0.20;;;0.20;;
65206;SDS011;58477;48.072;11.970;2024-02-23T03:03:37;1.25;;;0.40;;
65206;SDS011;58477;48.072;11.970;2024-02-23T03:06:02;0.20;;;0.20;;
65206;SDS011;58477;48.072;11.970;2024-02-23T03:08:28;0.32;;;0.20;;
65206;SDS011;58477;48.072;11.970;2024-02-23T03:10:53;0.10;;;0.10;;
65206;SDS011;58477;48.072;11.970;2024-02-23T03:13:18;0.20;;;0.20;;
65206;SDS011;58477;48.072;11.970;2024-02-23T03:15:44;0.15;;;0.15;;
65206;SDS011;58477;48.072;11.970;2024-02-23T03:18:09;0.22;;;0.20;;
65206;SDS011;58477;48.072;11.970;2024-02-23T03:20:35;0.20;;;0.20;;
65206;SDS011;58477;48.072;11.970;2024-02-23T03:23:01;0.20;;;0.20;;
65206;SDS011;58477;48.072;11.970;2024-02-23T03:25:28;0.40;;;0.40;;
65206;SDS011;58477;48.072;11.970;2024-02-23T03:27:54;0.20;;;0.20;;
65206;SDS011;58477;48.072;11.970;2024-02-23T03:30:20;0.20;;;0.20;;
65206;SDS011;58477;48.072;11.970;2024-02-23T03:32:45;0.20;;;0.20;;
65206;SDS011;58477;48.072;11.970;2024-02-23T03:35:12;3.70;;;0.30;;
65206;SDS011;58477;48.072;11.970;2024-02-23T03:37:38;0.40;;;0.22;;
65206;SDS011;58477;48.072;11.970;2024-02-23T03:40:04;0.20;;;0.20;;
65206;SDS011;58477;48.072;11.970;2024-02-23T03:42:31;0.20;;;0.20;;
65206;SDS011;58477;48.072;11.970;2024-02-23T03:44:56;0.10;;;0.10;;
65206;SDS011;58477;48.072;11.970;2024-02-23T03:47:22;0.20;;;0.20;;
65206;SDS011;58477;48.072;11.970;2024-02-23T03:49:47;0.20;;;0.20;;
65206;SDS011;58477;48.072;11.970;2024-02-23T03:52:12;0.38;;;0.20;;
65206;SDS011;58477;48.072;11.970;2024-02-23T03:54:38;0.20;;;0.20;;
65206;SDS011;58477;48.072;11.970;2024-02-23T03:57:03;0.55;;;0.30;;
65206;SDS011;58477;48.072;11.970;2024-02-23T03:59:29;0.20;;;0.20;;
65206;SDS011;58477;48.072;11.970;2024-02-23T04:01:54;0.20;;;0.20;;
65206;SDS011;58477;48.072;11.970;2024-02-23T04:04:21;0.20;;;0.20;;
65206;SDS011;58477;48.072;11.970;2024-02-23T04:06:46;1.27;;;0.22;;
65206;SDS011;58477;48.072;11.970;2024-02-23T04:09:12;0.20;;;0.20;;
65206;SDS011;58477;48.072;11.970;2024-02-23T04:11:37;0.20;;;0.20;;
65206;SDS011;58477;48.072;11.970;2024-02-23T04:14:03;0.10;;;0.10;;
65206;SDS011;58477;48.072;11.970;2024-02-23T04:16:30;0.30;;;0.28;;
65206;SDS011;58477;48.072;11.970;2024-02-23T04:18:56;0.15;;;0.15;;
65206;SDS011;58477;48.072;11.970;2024-02-23T04:21:21;0.20;;;0.20;;
65206;SDS011;58477;48.072;11.970;2024-02-23T04:23:47;0.47;;;0.40;;
65206;SDS011;58477;48.072;11.970;2024-02-23T04:26:13;0.55;;;0.30;;
65206;SDS011;58477;48.072;11.970;2024-02-23T04:28:39;0.20;;;0.20;;
65206;SDS011;58477;48.072;11.970;2024-02-23T04:31:05;0.17;;;0.17;;
65206;SDS011;58477;48.072;11.970;2024-02-23T04:33:30;0.63;;;0.63;;
65206;SDS011;58477;48.072;11.970;2024-02-23T04:35:56;0.15;;;0.15;;
65206;SDS011;58477;48.072;11.970;2024-02-23T04:38:22;0.30;;;0.28;;
65206;SDS011;58477;48.072;11.970;2024-02-23T04:40:47;0.40;;;0.30;;
65206;SDS011;58477;48.072;11.970;2024-02-23T04:43:13;0.20;;;0.20;;
65206;SDS011;58477;48.072;11.970;2024-02-23T04:45:38;0.85;;;0.28;;
65206;SDS011;58477;48.072;11.970;2024-02-23T04:48:04;0.20;;;0.20;;
65206;SDS011;58477;48.072;11.970;2024-02-23T04:50:29;0.10;;;0.10;;
65206;SDS011;58477;48.072;11.970;2024-02-23T04:52:55;0.28;;;0.28;;
65206;SDS011;58477;48.072;11.970;2024-02-23T04:55:20;0.30;;;0.30;;
65206;SDS011;58477;48.072;11.970;2024-02-23T04:57:46;0.40;;;0.40;;
65206;SDS011;58477;48.072;11.970;2024-02-23T05:00:11;0.30;;;0.30;;
65206;SDS011;58477;48.072;11.970;2024-02-23T05:02:37;0.20;;;0.20;;
65206;SDS011;58477;48.072;11.970;2024-02-23T05:05:03;0.30;;;0.30;;
65206;SDS011;58477;48.072;11.970;2024-02-23T05:07:32;0.20;;;0.20;;
65206;SDS011;58477;48.072;11.970;2024-02-23T05:09:59;0.25;;;0.25;;
65206;SDS011;58477;48.072;11.970;2024-02-23T05:12:24;0.20;;;0.20;;
65206;SDS011;58477;48.072;11.970;2024-02-23T05:14:50;0.22;;;0.22;;
65206;SDS011;58477;48.072;11.970;2024-02-23T05:17:15;0.20;;;0.20;;
65206;SDS011;58477;48.072;11.970;2024-02-23T05:19:41;0.52;;;0.20;;
65206;SDS011;58477;48.072;11.970;2024-02-23T05:22:06;0.35;;;0.35;;
65206;SDS011;58477;48.072;11.970;2024-02-23T05:24:32;0.80;;;0.40;;
65206;SDS011;58477;48.072;11.970;2024-02-23T05:26:57;0.30;;;0.30;;
65206;SDS011;58477;48.072;11.970;2024-02-23T05:29:27;0.38;;;0.32;;
65206;SDS011;58477;48.072;11.970;2024-02-23T05:31:53;0.22;;;0.22;;
65206;SDS011;58477;48.072;11.970;2024-02-23T05:34:19;0.20;;;0.20;;
65206;SDS011;58477;48.072;11.970;2024-02-23T05:36:45;0.28;;;0.28;;
65206;SDS011;58477;48.072;11.970;2024-02-23T05:39:15;0.30;;;0.20;;
65206;SDS011;58477;48.072;11.970;2024-02-23T05:41:42;0.20;;;0.20;;
65206;SDS011;58477;48.072;11.970;2024-02-23T05:44:07;0.30;;;0.30;;
65206;SDS011;58477;48.072;11.970;2024-02-23T05:46:34;0.30;;;0.30;;
65206;SDS011;58477;48.072;11.970;2024-02-23T05:49:00;0.40;;;0.40;;
65206;SDS011;58477;48.072;11.970;2024-02-23T05:51:25;0.40;;;0.40;;
65206;SDS011;58477;48.072;11.970;2024-02-23T05:53:54;0.60;;;0.40;;
65206;SDS011;58477;48.072;11.970;2024-02-23T05:56:20;0.30;;;0.30;;
65206;SDS011;58477;48.072;11.970;2024-02-23T05:58:45;0.30;;;0.30;;
65206;SDS011;58477;48.072;11.970;2024-02-23T06:01:11;0.30;;;0.30;;
65206;SDS011;58477;48.072;11.970;2024-02-23T06:03:36;0.40;;;0.40;;
65206;SDS011;58477;48.072;11.970;2024-02-23T06:06:02;0.25;;;0.25;;
65206;SDS011;58477;48.072;11.970;2024-02-23T06:08:32;0.30;;;0.30;;
65206;SDS011;58477;48.072;11.970;2024-02-23T06:10:57;0.90;;;0.20;;
65206;SDS011;58477;48.072;11.970;2024-02-23T06:13:25;0.95;;;0.30;;
65206;SDS011;58477;48.072;11.970;2024-02-23T06:15:50;0.20;;;0.20;;
65206;SDS011;58477;48.072;11.970;2024-02-23T06:18:15;0.32;;;0.20;;
65206;SDS011;58477;48.072;11.970;2024-02-23T06:20:41;0.30;;;0.30;;
65206;SDS011;58477;48.072;11.970;2024-02-23T06:23:07;0.40;;;0.40;;
65206;SDS011;58477;48.072;11.970;2024-02-23T06:25:32;1.20;;;0.65;;
65206;SDS011;58477;48.072;11.970;2024-02-23T06:27:58;0.40;;;0.40;;
65206;SDS011;58477;48.072;11.970;2024-02-23T06:30:23;0.63;;;0.60;;
65206;SDS011;58477;48.072;11.970;2024-02-23T06:32:48;0.30;;;0.30;;
65206;SDS011;58477;48.072;11.970;2024-02-23T06:35:14;0.85;;;0.50;;
65206;SDS011;58477;48.072;11.970;2024-02-23T06:37:40;0.50;;;0.50;;
65206;SDS011;58477;48.072;11.970;2024-02-23T06:40:05;0.63;;;0.30;;
65206;SDS011;58477;48.072;11.970;2024-02-23T06:42:32;1.65;;;0.50;;
65206;SDS011;58477;48.072;11.970;2024-02-23T06:44:58;0.30;;;0.30;;
65206;SDS011;58477;48.072;11.970;2024-02-23T06:47:23;0.40;;;0.40;;
65206;SDS011;58477;48.072;11.970;2024-02-23T06:49:49;0.40;;;0.40;;
65206;SDS011;58477;48.072;11.970;2024-02-23T06:52:15;0.30;;;0.30;;
65206;SDS011;58477;48.072;11.970;2024-02-23T06:54:41;0.55;;;0.47;;
65206;SDS011;58477;48.072;11.970;2024-02-23T06:57:06;0.43;;;0.43;;
65206;SDS011;58477;48.072;11.970;2024-02-23T06:59:32;0.68;;;0.50;;
65206;SDS011;58477;48.072;11.970;2024-02-23T07:01:58;0.55;;;0.50;;
65206;SDS011;58477;48.072;11.970;2024-02-23T07:04:23;1.40;;;0.40;;
65206;SDS011;58477;48.072;11.970;2024-02-23T07:06:49;1.25;;;0.65;;
65206;SDS011;58477;48.072;11.970;2024-02-23T07:09:14;0.90;;;0.50;;
65206;SDS011;58477;48.072;11.970;2024-02-23T07:11:39;1.17;;;0.50;;
65206;SDS011;58477;48.072;11.970;2024-02-23T07:14:07;0.57;;;0.57;;
65206;SDS011;58477;48.072;11.970;2024-02-23T07:16:37;1.58;;;0.77;;
65206;SDS011;58477;48.072;11.970;2024-02-23T07:19:04;0.73;;;0.73;;
65206;SDS011;58477;48.072;11.970;2024-02-23T07:21:29;3.42;;;1.10;;
65206;SDS011;58477;48.072;11.970;2024-02-23T07:23:55;0.70;;;0.60;;
65206;SDS011;58477;48.072;11.970;2024-02-23T07:26:21;0.70;;;0.70;;
65206;SDS011;58477;48.072;11.970;2024-02-23T07:28:47;0.90;;;0.70;;
65206;SDS011;58477;48.072;11.970;2024-02-23T07:31:14;0.60;;;0.60;;
65206;SDS011;58477;48.072;11.970;2024-02-23T07:33:40;1.10;;;0.70;;
65206;SDS011;58477;48.072;11.970;2024-02-23T07:36:06;0.52;;;0.52;;
65206;SDS011;58477;48.072;11.970;2024-02-23T07:38:33;0.88;;;0.57;;
65206;SDS011;58477;48.072;11.970;2024-02-23T07:40:59;0.65;;;0.65;;
65206;SDS011;58477;48.072;11.970;2024-02-23T07:43:24;0.90;;;0.60;;
65206;SDS011;58477;48.072;11.970;2024-02-23T07:45:51;2.00;;;0.70;;
65206;SDS011;58477;48.072;11.970;2024-02-23T07:48:16;0.55;;;0.50;;
65206;SDS011;58477;48.072;11.970;2024-02-23T07:50:42;0.88;;;0.40;;
65206;SDS011;58477;48.072;11.970;2024-02-23T07:53:07;0.52;;;0.52;;
65206;SDS011;58477;48.072;11.970;2024-02-23T07:55:33;0.60;;;0.50;;
65206;SDS011;58477;48.072;11.970;2024-02-23T07:57:58;0.80;;;0.55;;
65206;SDS011;58477;48.072;11.970;2024-02-23T08:00:26;0.95;;;0.70;;
65206;SDS011;58477;48.072;11.970;2024-02-23T08:02:53;1.10;;;0.80;;
65206;SDS011;58477;48.072;11.970;2024-02-23T08:05:21;1.77;;;0.60;;
65206;SDS011;58477;48.072;11.970;2024-02-23T08:07:48;0.75;;;0.50;;
65206;SDS011;58477;48.072;11.970;2024-02-23T08:10:14;2.72;;;0.63;;
65206;SDS011;58477;48.072;11.970;2024-02-23T08:12:40;0.55;;;0.50;;
65206;SDS011;58477;48.072;11.970;2024-02-23T08:15:05;0.60;;;0.60;;
65206;SDS011;58477;48.072;11.970;2024-02-23T08:17:31;0.50;;;0.50;;
65206;SDS011;58477;48.072;11.970;2024-02-23T08:19:57;0.57;;;0.57;;
65206;SDS011;58477;48.072;11.970;2024-02-23T08:22:22;0.65;;;0.38;;
65206;SDS011;58477;48.072;11.970;2024-02-23T08:24:48;0.30;;;0.30;;
65206;SDS011;58477;48.072;11.970;2024-02-23T08:27:14;0.47;;;0.47;;
65206;SDS011;58477;48.072;11.970;2024-02-23T08:29:39;0.88;;;0.40;;
65206;SDS011;58477;48.072;11.970;2024-02-23T08:32:06;7.70;;;0.70;;
65206;SDS011;58477;48.072;11.970;2024-02-23T08:34:32;1.67;;;0.40;;
65206;SDS011;58477;48.072;11.970;2024-02-23T08:36:57;0.30;;;0.30;;
65206;SDS011;58477;48.072;11.970;2024-02-23T08:39:23;0.50;;;0.50;;
65206;SDS011;58477;48.072;11.970;2024-02-23T08:41:48;0.73;;;0.60;;
65206;SDS011;58477;48.072;11.970;2024-02-23T08:44:13;0.95;;;0.60;;
65206;SDS011;58477;48.072;11.970;2024-02-23T08:46:39;2.05;;;0.68;;
65206;SDS011;58477;48.072;11.970;2024-02-23T08:49:05;1.25;;;0.80;;
65206;SDS011;58477;48.072;11.970;2024-02-23T08:51:30;0.50;;;0.50;;
65206;SDS011;58477;48.072;11.970;2024-02-23T08:53:56;0.43;;;0.43;;
65206;SDS011;58477;48.072;11.970;2024-02-23T08:56:22;1.00;;;0.40;;
65206;SDS011;58477;48.072;11.970;2024-02-23T08:58:47;0.80;;;0.70;;
65206;SDS011;58477;48.072;11.970;2024-02-23T09:01:13;0.40;;;0.40;;
65206;SDS011;58477;48.072;11.970;2024-02-23T09:03:39;0.73;;;0.50;;
65206;SDS011;58477;48.072;11.970;2024-02-23T09:06:04;0.85;;;0.60;;
65206;SDS011;58477;48.072;11.970;2024-02-23T09:08:29;0.38;;;0.38;;
65206;SDS011;58477;48.072;11.970;2024-02-23T09:10:55;4.45;;;0.50;;
65206;SDS011;58477;48.072;11.970;2024-02-23T09:13:20;1.95;;;0.93;;
65206;SDS011;58477;48.072;11.970;2024-02-23T09:15:46;1.35;;;0.68;;
65206;SDS011;58477;48.072;11.970;2024-02-23T09:18:11;0.73;;;0.73;;
65206;SDS011;58477;48.072;11.970;2024-02-23T09:20:37;0.30;;;0.30;;
65206;SDS011;58477;48.072;11.970;2024-02-23T09:23:02;0.60;;;0.60;;
65206;SDS011;58477;48.072;11.970;2024-02-23T09:25:28;1.33;;;0.80;;
65206;SDS011;58477;48.072;11.970;2024-02-23T09:27:56;0.93;;;0.43;;
65206;SDS011;58477;48.072;11.970;2024-02-23T09:30:22;3.03;;;0.40;;
65206;SDS011;58477;48.072;11.970;2024-02-23T09:32:47;0.57;;;0.50;;
65206;SDS011;58477;48.072;11.970;2024-02-23T09:35:13;0.60;;;0.55;;
65206;SDS011;58477;48.072;11.970;2024-02-23T09:37:39;2.08;;;0.40;;
65206;SDS011;58477;48.072;11.970;2024-02-23T09:40:04;6.45;;;0.70;;
65206;SDS011;58477;48.072;11.970;2024-02-23T09:42:31;0.73;;;0.60;;
65206;SDS011;58477;48.072;11.970;2024-02-23T09:44:58;0.73;;;0.57;;
65206;SDS011;58477;48.072;11.970;2024-02-23T09:47:28;0.80;;;0.80;;
65206;SDS011;58477;48.072;11.970;2024-02-23T09:49:53;2.83;;;0.82;;
65206;SDS011;58477;48.072;11.970;2024-02-23T09:52:20;0.50;;;0.50;;
65206;SDS011;58477;48.072;11.970;2024-02-23T09:54:46;0.70;;;0.60;;
65206;SDS011;58477;48.072;11.970;2024-02-23T09:57:12;0.52;;;0.43;;
65206;SDS011;58477;48.072;11.970;2024-02-23T09:59:39;0.63;;;0.57;;
65206;SDS011;58477;48.072;11.970;2024-02-23T10:02:06;0.40;;;0.40;;
65206;SDS011;58477;48.072;11.970;2024-02-23T10:04:36;0.45;;;0.43;;
65206;SDS011;58477;48.072;11.970;2024-02-23T10:07:04;1.05;;;0.40;;
65206;SDS011;58477;48.072;11.970;2024-02-23T10:09:30;0.90;;;0.70;;
65206;SDS011;58477;48.072;11.970;2024-02-23T10:11:56;8.43;;;0.52;;
65206;SDS011;58477;48.072;11.970;2024-02-23T10:14:22;0.30;;;0.30;;
65206;SDS011;58477;48.072;11.970;2024-02-23T10:16:47;1.48;;;0.40;;
65206;SDS011;58477;48.072;11.970;2024-02-23T10:19:18;0.43;;;0.43;;
65206;SDS011;58477;48.072;11.970;2024-02-23T10:21:47;1.98;;;0.70;;
65206;SDS011;58477;48.072;11.970;2024-02-23T10:24:17;2.20;;;0.52;;
65206;SDS011;58477;48.072;11.970;2024-02-23T10:26:42;0.40;;;0.40;;
65206;SDS011;58477;48.072;11.970;2024-02-23T10:29:08;0.47;;;0.40;;
65206;SDS011;58477;48.072;11.970;2024-02-23T10:31:36;0.20;;;0.20;;
65206;SDS011;58477;48.072;11.970;2024-02-23T10:34:07;0.52;;;0.50;;
65206;SDS011;58477;48.072;11.970;2024-02-23T10:36:41;0.10;;;0.10;;
65206;SDS011;58477;48.072;11.970;2024-02-23T10:39:07;0.43;;;0.43;;
65206;SDS011;58477;48.072;11.970;2024-02-23T10:41:34;0.40;;;0.30;;
65206;SDS011;58477;48.072;11.970;2024-02-23T10:44:02;0.28;;;0.28;;
65206;SDS011;58477;48.072;11.970;2024-02-23T10:46:29;0.45;;;0.40;;
65206;SDS011;58477;48.072;11.970;2024-02-23T10:48:56;0.45;;;0.45;;
65206;SDS011;58477;48.072;11.970;2024-02-23T10:51:24;0.73;;;0.50;;
65206;SDS011;58477;48.072;11.970;2024-02-23T10:53:50;0.55;;;0.55;;
65206;SDS011;58477;48.072;11.970;2024-02-23T10:56:17;0.50;;;0.50;;
65206;SDS011;58477;48.072;11.970;2024-02-23T10:58:43;0.63;;;0.52;;
65206;SDS011;58477;48.072;11.970;2024-02-23T11:01:09;0.95;;;0.85;;
65206;SDS011;58477;48.072;11.970;2024-02-23T11:03:35;1.70;;;0.68;;
65206;SDS011;58477;48.072;11.970;2024-02-23T11:06:05;0.40;;;0.40;;
65206;SDS011;58477;48.072;11.970;2024-02-23T11:08:35;0.40;;;0.40;;
65206;SDS011;58477;48.072;11.970;2024-02-23T11:11:07;0.40;;;0.40;;
65206;SDS011;58477;48.072;11.970;2024-02-23T11:13:34;0.30;;;0.30;;
65206;SDS011;58477;48.072;11.970;2024-02-23T11:16:01;0.50;;;0.50;;
65206;SDS011;58477;48.072;11.970;2024-02-23T11:18:31;0.50;;;0.47;;
65206;SDS011;58477;48.072;11.970;2024-02-23T11:21:00;1.48;;;0.45;;
65206;SDS011;58477;48.072;11.970;2024-02-23T11:23:38;1.02;;;0.70;;
65206;SDS011;58477;48.072;11.970;2024-02-23T11:26:05;2.85;;;0.40;;
65206;SDS011;58477;48.072;11.970;2024-02-23T11:28:41;0.50;;;0.50;;
65206;SDS011;58477;48.072;11.970;2024-02-23T11:31:14;1.27;;;0.68;;
65206;SDS011;58477;48.072;11.970;2024-02-23T11:33:40;0.45;;;0.45;;
65206;SDS011;58477;48.072;11.970;2024-02-23T11:36:08;0.30;;;0.30;;
65206;SDS011;58477;48.072;11.970;2024-02-23T11:38:34;0.57;;;0.57;;
65206;SDS011;58477;48.072;11.970;2024-02-23T11:41:00;0.47;;;0.47;;
65206;SDS011;58477;48.072;11.970;2024-02-23T11:43:27;0.40;;;0.40;;
65206;SDS011;58477;48.072;11.970;2024-02-23T11:45:53;3.63;;;0.82;;
65206;SDS011;58477;48.072;11.970;2024-02-23T11:48:18;8.90;;;0.60;;
65206;SDS011;58477;48.072;11.970;2024-02-23T11:50:44;0.80;;;0.80;;
65206;SDS011;58477;48.072;11.970;2024-02-23T11:53:10;0.40;;;0.40;;
65206;SDS011;58477;48.072;11.970;2024-02-23T11:55:36;0.65;;;0.60;;
65206;SDS011;58477;48.072;11.970;2024-02-23T11:58:02;0.50;;;0.50;;
65206;SDS011;58477;48.072;11.970;2024-02-23T12:00:27;0.43;;;0.43;;
65206;SDS011;58477;48.072;11.970;2024-02-23T12:02:55;0.63;;;0.40;;
65206;SDS011;58477;48.072;11.970;2024-02-23T12:05:20;0.50;;;0.50;;
65206;SDS011;58477;48.072;11.970;2024-02-23T12:07:46;0.45;;;0.45;;
65206;SDS011;58477;48.072;11.970;2024-02-23T12:10:11;1.05;;;0.50;;
65206;SDS011;58477;48.072;11.970;2024-02-23T12:12:38;0.80;;;0.80;;
65206;SDS011;58477;48.072;11.970;2024-02-23T12:15:04;1.08;;;0.75;;
65206;SDS011;58477;48.072;11.970;2024-02-23T12:17:31;0.65;;;0.65;;
65206;SDS011;58477;48.072;11.970;2024-02-23T12:20:00;2.20;;;1.05;;
65206;SDS011;58477;48.072;11.970;2024-02-23T12:22:26;0.60;;;0.60;;
65206;SDS011;58477;48.072;11.970;2024-02-23T12:24:52;0.55;;;0.55;;
65206;SDS011;58477;48.072;11.970;2024-02-23T12:27:17;1.70;;;0.70;;
65206;SDS011;58477;48.072;11.970;2024-02-23T12:29:56;0.77;;;0.70;;
65206;SDS011;58477;48.072;11.970;2024-02-23T12:32:22;0.75;;;0.50;;
65206;SDS011;58477;48.072;11.970;2024-02-23T12:34:48;0.50;;;0.50;;
65206;SDS011;58477;48.072;11.970;2024-02-23T12:37:14;1.45;;;0.50;;
65206;SDS011;58477;48.072;11.970;2024-02-23T12:39:41;0.65;;;0.63;;
65206;SDS011;58477;48.072;11.970;2024-02-23T12:42:07;1.17;;;0.73;;
65206;SDS011;58477;48.072;11.970;2024-02-23T12:44:32;0.50;;;0.50;;
65206;SDS011;58477;48.072;11.970;2024-02-23T12:46:58;0.40;;;0.40;;
65206;SDS011;58477;48.072;11.970;2024-02-23T12:49:23;0.52;;;0.52;;
65206;SDS011;58477;48.072;11.970;2024-02-23T12:51:49;1.13;;;0.50;;
65206;SDS011;58477;48.072;11.970;2024-02-23T12:54:14;0.95;;;0.63;;
65206;SDS011;58477;48.072;11.970;2024-02-23T12:56:39;0.47;;;0.40;;
65206;SDS011;58477;48.072;11.970;2024-02-23T12:59:05;0.45;;;0.45;;
65206;SDS011;58477;48.072;11.970;2024-02-23T13:01:30;0.50;;;0.50;;
65206;SDS011;58477;48.072;11.970;2024-02-23T13:03:59;0.73;;;0.50;;
65206;SDS011;58477;48.072;11.970;2024-02-23T13:06:25;1.42;;;0.73;;
65206;SDS011;58477;48.072;11.970;2024-02-23T13:08:50;0.50;;;0.50;;
65206;SDS011;58477;48.072;11.970;2024-02-23T13:11:16;0.68;;;0.60;;
65206;SDS011;58477;48.072;11.970;2024-02-23T13:13:41;3.50;;;0.70;;
65206;SDS011;58477;48.072;11.970;2024-02-23T13:16:07;1.23;;;0.52;;
65206;SDS011;58477;48.072;11.970;2024-02-23T13:18:33;1.88;;;0.68;;
65206;SDS011;58477;48.072;11.970;2024-02-23T13:20:59;0.47;;;0.47;;
65206;SDS011;58477;48.072;11.970;2024-02-23T13:23:24;0.60;;;0.60;;
65206;SDS011;58477;48.072;11.970;2024-02-23T13:25:50;0.60;;;0.60;;
65206;SDS011;58477;48.072;11.970;2024-02-23T13:28:15;0.60;;;0.60;;
65206;SDS011;58477;48.072;11.970;2024-02-23T13:30:41;0.50;;;0.50;;
65206;SDS011;58477;48.072;11.970;2024-02-23T13:33:07;0.50;;;0.50;;
65206;SDS011;58477;48.072;11.970;2024-02-23T13:35:33;0.40;;;0.40;;
65206;SDS011;58477;48.072;11.970;2024-02-23T13:37:59;0.45;;;0.45;;
65206;SDS011;58477;48.072;11.970;2024-02-23T13:40:25;2.45;;;0.50;;
65206;SDS011;58477;48.072;11.970;2024-02-23T13:42:50;1.15;;;0.98;;
65206;SDS011;58477;48.072;11.970;2024-02-23T13:45:17;1.20;;;0.60;;
65206;SDS011;58477;48.072;11.970;2024-02-23T13:47:54;1.20;;;0.60;;
65206;SDS011;58477;48.072;11.970;2024-02-23T13:50:24;0.60;;;0.60;;
65206;SDS011;58477;48.072;11.970;2024-02-23T13:52:50;0.70;;;0.60;;
65206;SDS011;58477;48.072;11.970;2024-02-23T13:55:16;0.60;;;0.60;;
65206;SDS011;58477;48.072;11.970;2024-02-23T13:57:41;0.98;;;0.60;;
65206;SDS011;58477;48.072;11.970;2024-02-23T14:00:07;0.40;;;0.40;;
65206;SDS011;58477;48.072;11.970;2024-02-23T14:02:38;0.40;;;0.40;;
65206;SDS011;58477;48.072;11.970;2024-02-23T14:05:05;0.47;;;0.47;;
65206;SDS011;58477;48.072;11.970;2024-02-23T14:07:34;0.88;;;0.50;;
65206;SDS011;58477;48.072;11.970;2024-02-23T14:10:00;0.30;;;0.30;;
65206;SDS011;58477;48.072;11.970;2024-02-23T14:12:27;0.73;;;0.40;;
65206;SDS011;58477;48.072;11.970;2024-02-23T14:14:53;1.45;;;0.68;;
65206;SDS011;58477;48.072;11.970;2024-02-23T14:17:18;1.48;;;0.40;;
65206;SDS011;58477;48.072;11.970;2024-02-23T14:19:44;1.50;;;0.40;;
65206;SDS011;58477;48.072;11.970;2024-02-23T14:22:09;0.38;;;0.38;;
65206;SDS011;58477;48.072;11.970;2024-02-23T14:24:35;0.47;;;0.47;;
65206;SDS011;58477;48.072;11.970;2024-02-23T14:27:00;0.85;;;0.45;;